createdAt,value
2019-05-18T00:01:23.361Z,11.20
2019-05-18T00:03:51.876Z,11.20
2019-05-18T00:06:20.442Z,11.20
2019-05-18T00:08:49.019Z,11.10
2019-05-18T00:11:17.571Z,11.20
2019-05-18T00:13:46.202Z,11.20
2019-05-18T00:16:14.860Z,11.20
2019-05-18T00:18:43.411Z,11.20
2019-05-18T00:21:12.054Z,11.20
2019-05-18T00:23:40.662Z,11.20
2019-05-18T00:26:09.218Z,11.20
2019-05-18T00:28:37.773Z,11.30
2019-05-18T00:31:06.420Z,11.20
2019-05-18T00:33:35.019Z,11.20
2019-05-18T00:36:03.614Z,11.20
2019-05-18T00:38:32.175Z,11.20
2019-05-18T00:41:00.730Z,11.10
2019-05-18T00:43:29.274Z,10.90
2019-05-18T00:45:57.843Z,10.80
2019-05-18T00:48:26.397Z,10.80
2019-05-18T00:50:54.958Z,10.90
2019-05-18T00:53:23.594Z,10.90
2019-05-18T00:55:52.146Z,10.80
2019-05-18T00:58:20.718Z,10.70
2019-05-18T01:00:49.314Z,10.80
2019-05-18T01:03:17.868Z,10.90
2019-05-18T01:05:46.422Z,10.90
2019-05-18T01:08:15.138Z,10.90
2019-05-18T01:10:44.331Z,10.90
2019-05-18T01:13:13.330Z,10.90
2019-05-18T01:15:41.907Z,10.90
2019-05-18T01:18:10.468Z,10.90
2019-05-18T01:20:39.035Z,10.90
2019-05-18T01:23:07.691Z,10.90
2019-05-18T01:25:36.319Z,10.90
2019-05-18T01:28:04.930Z,10.90
2019-05-18T01:30:33.642Z,10.90
2019-05-18T01:33:02.208Z,10.90
2019-05-18T01:35:30.916Z,10.90
2019-05-18T01:37:59.497Z,10.90
2019-05-18T01:40:28.061Z,10.90
2019-05-18T01:42:56.622Z,10.90
2019-05-18T01:45:25.271Z,10.90
2019-05-18T01:47:53.831Z,11.00
2019-05-18T01:50:22.447Z,11.00
2019-05-18T01:52:51.583Z,11.00
2019-05-18T01:55:20.137Z,11.00
2019-05-18T01:57:48.698Z,11.00
2019-05-18T02:00:17.613Z,11.00
2019-05-18T02:02:46.170Z,11.00
2019-05-18T02:05:14.854Z,11.00
2019-05-18T02:07:43.497Z,11.00
2019-05-18T02:10:12.799Z,11.00
2019-05-18T02:12:41.346Z,11.00
2019-05-18T02:15:10.558Z,11.00
2019-05-18T02:17:39.176Z,11.00
2019-05-18T02:20:08.774Z,11.00
2019-05-18T02:22:37.343Z,11.00
2019-05-18T02:25:08.343Z,11.00
2019-05-18T02:27:36.899Z,11.00
2019-05-18T02:30:08.440Z,11.10
2019-05-18T02:32:36.959Z,11.10
2019-05-18T02:35:07.399Z,11.10
2019-05-18T02:37:36.042Z,11.10
2019-05-18T02:40:06.839Z,11.10
2019-05-18T02:42:35.467Z,11.10
2019-05-18T02:45:06.388Z,11.10
2019-05-18T02:47:35.014Z,11.00
2019-05-18T02:50:05.903Z,11.00
2019-05-18T02:52:34.502Z,11.10
2019-05-18T02:55:03.407Z,11.00
2019-05-18T02:57:31.951Z,11.10
2019-05-18T03:00:00.515Z,11.10
2019-05-18T03:02:29.070Z,11.10
2019-05-18T03:05:18.613Z,11.10
2019-05-18T03:07:47.301Z,11.10
2019-05-18T03:10:17.284Z,11.10
2019-05-18T03:12:46.619Z,11.20
2019-05-18T03:15:15.829Z,11.10
2019-05-18T03:17:44.564Z,11.10
2019-05-18T03:20:13.335Z,11.20
2019-05-18T03:22:41.960Z,11.20
2019-05-18T03:25:11.251Z,11.30
2019-05-18T03:27:39.933Z,11.30
2019-05-18T03:30:09.721Z,11.30
2019-05-18T03:32:38.357Z,11.30
2019-05-18T03:35:07.972Z,11.40
2019-05-18T03:37:36.524Z,11.30
2019-05-18T03:40:06.714Z,11.30
2019-05-18T03:42:35.278Z,11.30
2019-05-18T03:45:04.277Z,11.30
2019-05-18T03:47:32.917Z,11.30
2019-05-18T03:50:01.496Z,11.40
2019-05-18T03:52:30.051Z,11.40
2019-05-18T03:54:58.618Z,11.40
2019-05-18T03:57:27.175Z,11.50
2019-05-18T03:59:55.745Z,11.50
2019-05-18T04:02:24.306Z,11.50
2019-05-18T04:04:52.890Z,11.50
2019-05-18T04:07:21.455Z,11.40
2019-05-18T04:09:50.087Z,11.40
2019-05-18T04:12:18.666Z,11.50
2019-05-18T04:14:47.223Z,11.50
2019-05-18T04:17:15.777Z,11.50
2019-05-18T04:19:46.831Z,11.50
2019-05-18T04:22:14.555Z,11.50
2019-05-18T04:24:43.096Z,11.50
2019-05-18T04:27:11.679Z,11.60
2019-05-18T04:29:40.232Z,11.50
2019-05-18T04:32:08.783Z,11.60
2019-05-18T04:34:37.356Z,11.60
2019-05-18T04:37:05.912Z,11.60
2019-05-18T04:39:34.468Z,11.60
2019-05-18T04:42:03.133Z,11.60
2019-05-18T04:44:31.691Z,11.60
2019-05-18T04:47:00.311Z,11.70
2019-05-18T04:49:28.867Z,11.70
2019-05-18T04:51:57.419Z,11.70
2019-05-18T04:54:26.054Z,11.70
2019-05-18T04:56:54.627Z,11.70
2019-05-18T04:59:23.207Z,11.70
2019-05-18T05:01:51.809Z,11.70
2019-05-18T05:04:20.470Z,11.70
2019-05-18T05:06:49.058Z,11.70
2019-05-18T05:09:17.605Z,11.70
2019-05-18T05:11:46.170Z,11.80
2019-05-18T05:14:14.730Z,11.70
2019-05-18T05:16:43.372Z,11.70
2019-05-18T05:19:12.049Z,11.80
2019-05-18T05:21:40.602Z,11.80
2019-05-18T05:24:09.154Z,11.80
2019-05-18T05:26:39.593Z,11.90
2019-05-18T05:29:07.931Z,11.90
2019-05-18T05:31:36.639Z,12.00
2019-05-18T05:34:05.189Z,12.00
2019-05-18T05:36:33.732Z,12.10
2019-05-18T05:39:02.371Z,12.10
2019-05-18T05:41:30.942Z,12.10
2019-05-18T05:43:59.484Z,12.10
2019-05-18T05:46:28.170Z,12.10
2019-05-18T05:48:56.726Z,12.10
2019-05-18T05:51:25.451Z,12.20
2019-05-18T05:53:54.027Z,12.30
2019-05-18T05:56:22.663Z,12.30
2019-05-18T05:58:51.221Z,12.30
2019-05-18T06:01:19.835Z,12.30
2019-05-18T06:03:48.356Z,12.30
2019-05-18T06:06:16.926Z,12.40
2019-05-18T06:08:45.487Z,12.40
2019-05-18T06:11:14.058Z,12.40
2019-05-18T06:13:42.690Z,12.40
2019-05-18T06:16:11.323Z,12.40
2019-05-18T06:18:39.888Z,12.40
2019-05-18T06:21:08.537Z,12.40
2019-05-18T06:23:37.208Z,12.50
2019-05-18T06:26:05.834Z,12.40
2019-05-18T06:28:34.396Z,12.50
2019-05-18T06:31:03.043Z,12.50
2019-05-18T06:33:31.614Z,12.50
2019-05-18T06:36:00.213Z,12.50
2019-05-18T06:38:28.874Z,12.50
2019-05-18T06:40:57.427Z,12.50
2019-05-18T06:43:26.650Z,12.50
2019-05-18T06:45:55.322Z,12.50
2019-05-18T06:48:23.947Z,12.50
2019-05-18T06:51:06.390Z,12.50
2019-05-18T06:53:23.493Z,12.60
2019-05-18T06:55:53.999Z,12.60
2019-05-18T06:58:23.687Z,12.60
2019-05-18T07:00:52.377Z,12.70
2019-05-18T07:03:20.991Z,12.70
2019-05-18T07:05:49.501Z,12.60
2019-05-18T07:08:18.082Z,12.60
2019-05-18T07:10:46.639Z,12.70
2019-05-18T07:13:15.217Z,12.80
2019-05-18T07:15:45.234Z,12.80
2019-05-18T07:18:13.866Z,12.90
2019-05-18T07:20:42.425Z,12.90
2019-05-18T07:23:11.126Z,12.80
2019-05-18T07:25:39.674Z,12.80
2019-05-18T07:28:08.232Z,13.00
2019-05-18T07:30:36.887Z,13.00
2019-05-18T07:33:05.522Z,13.00
2019-05-18T07:35:34.086Z,13.00
2019-05-18T07:38:03.249Z,13.00
2019-05-18T07:40:31.828Z,13.00
2019-05-18T07:43:00.367Z,13.10
2019-05-18T07:45:29.129Z,13.10
2019-05-18T07:47:57.695Z,13.00
2019-05-18T07:50:26.327Z,12.90
2019-05-18T07:52:55.017Z,13.00
2019-05-18T07:55:23.664Z,13.00
2019-05-18T07:57:52.330Z,13.10
2019-05-18T08:00:20.955Z,13.20
2019-05-18T08:02:49.582Z,13.40
2019-05-18T08:05:18.302Z,13.40
2019-05-18T08:07:46.903Z,13.40
2019-05-18T08:10:17.179Z,13.30
2019-05-18T08:12:45.728Z,13.30
2019-05-18T08:15:14.857Z,13.40
2019-05-18T08:17:43.421Z,13.30
2019-05-18T08:20:12.235Z,13.30
2019-05-18T08:22:40.830Z,13.40
2019-05-18T08:25:09.638Z,13.30
2019-05-18T08:27:38.239Z,13.40
2019-05-18T08:30:07.742Z,13.60
2019-05-18T08:32:36.454Z,13.60
2019-05-18T08:35:07.324Z,13.70
2019-05-18T08:37:36.015Z,13.70
2019-05-18T08:40:07.283Z,13.70
2019-05-18T08:42:36.239Z,13.80
2019-05-18T08:45:08.013Z,13.70
2019-05-18T08:47:36.731Z,13.60
2019-05-18T08:50:07.320Z,13.40
2019-05-18T08:52:35.878Z,13.50
2019-05-18T08:55:06.287Z,13.60
2019-05-18T08:57:34.978Z,13.70
2019-05-18T09:00:04.770Z,13.70
2019-05-18T09:02:33.337Z,13.70
2019-05-18T09:05:04.783Z,13.90
2019-05-18T09:07:32.830Z,14.00
2019-05-18T09:10:01.490Z,14.10
2019-05-18T09:12:30.511Z,14.10
2019-05-18T09:14:59.185Z,14.20
2019-05-18T09:17:27.839Z,14.20
2019-05-18T09:19:56.632Z,14.40
2019-05-18T09:22:25.207Z,14.90
2019-05-18T09:24:53.959Z,15.00
2019-05-18T09:27:22.642Z,15.00
2019-05-18T09:29:51.338Z,15.00
2019-05-18T09:32:20.030Z,14.90
2019-05-18T09:34:48.747Z,14.90
2019-05-18T09:37:17.423Z,14.80
2019-05-18T09:39:46.051Z,14.80
2019-05-18T09:42:14.838Z,14.70
2019-05-18T09:44:43.412Z,14.70
2019-05-18T09:47:12.024Z,14.90
2019-05-18T09:49:40.711Z,14.90
2019-05-18T09:52:09.267Z,14.90
2019-05-18T09:54:37.957Z,15.10
2019-05-18T09:57:06.657Z,15.20
2019-05-18T09:59:35.303Z,15.20
2019-05-18T10:02:03.965Z,15.10
2019-05-18T10:04:32.606Z,15.20
2019-05-18T10:07:01.155Z,15.40
2019-05-18T10:09:38.530Z,15.50
2019-05-18T10:12:00.067Z,15.70
2019-05-18T10:14:28.624Z,15.80
2019-05-18T10:16:57.174Z,15.70
2019-05-18T10:19:25.829Z,15.60
2019-05-18T10:21:54.468Z,15.60
2019-05-18T10:24:22.994Z,15.70
2019-05-18T10:26:51.775Z,15.80
2019-05-18T10:29:20.349Z,16.00
2019-05-18T10:31:48.887Z,16.10
2019-05-18T10:34:17.571Z,16.40
2019-05-18T10:36:47.622Z,16.50
2019-05-18T10:39:16.218Z,16.30
2019-05-18T10:41:44.792Z,16.20
2019-05-18T10:44:13.522Z,16.30
2019-05-18T10:46:42.084Z,16.60
2019-05-18T10:49:10.694Z,16.50
2019-05-18T10:51:39.246Z,16.70
2019-05-18T10:54:09.333Z,17.00
2019-05-18T10:56:38.475Z,17.20
2019-05-18T10:59:07.033Z,17.20
2019-05-18T11:01:35.611Z,17.00
2019-05-18T11:04:04.281Z,16.90
2019-05-18T11:06:32.948Z,16.80
2019-05-18T11:09:01.601Z,16.80
2019-05-18T11:11:30.241Z,16.90
2019-05-18T11:13:58.968Z,17.00
2019-05-18T11:16:27.575Z,16.90
2019-05-18T11:18:56.246Z,17.10
2019-05-18T11:21:24.895Z,17.30
2019-05-18T11:23:53.423Z,17.40
2019-05-18T11:26:22.089Z,17.20
2019-05-18T11:28:50.736Z,17.20
2019-05-18T11:31:19.276Z,17.30
2019-05-18T11:33:47.890Z,17.30
2019-05-18T11:36:16.545Z,17.30
2019-05-18T11:38:45.188Z,17.40
2019-05-18T11:41:13.790Z,17.40
2019-05-18T11:43:42.338Z,17.40
2019-05-18T11:46:10.899Z,17.40
2019-05-18T11:48:39.582Z,17.40
2019-05-18T11:51:08.616Z,17.40
2019-05-18T11:53:37.174Z,17.70
2019-05-18T11:56:05.816Z,17.90
2019-05-18T11:58:34.363Z,18.10
2019-05-18T12:01:02.922Z,17.90
2019-05-18T12:03:31.601Z,18.10
2019-05-18T12:06:00.166Z,18.10
2019-05-18T12:08:28.729Z,18.10
2019-05-18T12:10:57.487Z,18.20
2019-05-18T12:13:26.035Z,18.10
2019-05-18T12:15:54.613Z,18.10
2019-05-18T12:18:23.369Z,18.00
2019-05-18T12:20:51.922Z,17.90
2019-05-18T12:23:20.551Z,17.90
2019-05-18T12:25:50.796Z,17.80
2019-05-18T12:28:19.364Z,17.70
2019-05-18T12:30:47.928Z,17.80
2019-05-18T12:33:16.574Z,17.80
2019-05-18T12:35:45.228Z,17.90
2019-05-18T12:38:13.791Z,17.90
2019-05-18T12:40:42.368Z,17.80
2019-05-18T12:43:10.928Z,17.90
2019-05-18T12:45:39.556Z,18.00
2019-05-18T12:48:08.207Z,18.20
2019-05-18T12:50:36.764Z,18.30
2019-05-18T12:53:05.834Z,18.30
2019-05-18T12:55:34.443Z,18.30
2019-05-18T12:58:02.999Z,18.70
2019-05-18T13:00:32.008Z,18.80
2019-05-18T13:03:00.566Z,18.80
2019-05-18T13:05:29.126Z,19.10
2019-05-18T13:07:57.695Z,19.40
2019-05-18T13:10:26.503Z,19.50
2019-05-18T13:12:55.082Z,19.70
2019-05-18T13:15:24.001Z,19.70
2019-05-18T13:17:52.774Z,20.30
2019-05-18T13:20:21.470Z,20.40
2019-05-18T13:22:50.158Z,20.50
2019-05-18T13:25:18.899Z,20.80
2019-05-18T13:27:47.456Z,20.60
2019-05-18T13:30:19.858Z,20.10
2019-05-18T13:32:48.154Z,19.40
2019-05-18T13:35:17.082Z,19.60
2019-05-18T13:37:45.649Z,19.60
2019-05-18T13:40:16.689Z,20.20
2019-05-18T13:42:45.239Z,20.00
2019-05-18T13:45:14.951Z,19.90
2019-05-18T13:47:43.680Z,19.70
2019-05-18T13:50:13.472Z,19.70
2019-05-18T13:52:42.101Z,19.60
2019-05-18T13:55:11.446Z,20.00
2019-05-18T13:57:40.061Z,20.50
2019-05-18T14:00:10.152Z,21.00
2019-05-18T14:02:39.149Z,21.00
2019-05-18T14:05:08.162Z,20.80
2019-05-18T14:07:36.714Z,21.10
2019-05-18T14:10:12.608Z,21.30
2019-05-18T14:12:41.455Z,21.50
2019-05-18T14:15:12.039Z,21.90
2019-05-18T14:17:40.704Z,22.10
2019-05-18T14:20:10.003Z,21.90
2019-05-18T14:22:38.551Z,21.60
2019-05-18T14:25:18.701Z,21.30
2019-05-18T14:27:39.087Z,21.50
2019-05-18T14:30:09.599Z,21.20
2019-05-18T14:32:38.171Z,21.00
2019-05-18T14:35:08.573Z,20.90
2019-05-18T14:37:37.138Z,20.60
2019-05-18T14:40:07.248Z,20.40
2019-05-18T14:42:36.072Z,20.50
2019-05-18T14:45:07.660Z,20.80
2019-05-18T14:47:36.492Z,21.30
2019-05-18T14:50:07.175Z,21.40
2019-05-18T14:52:36.158Z,21.30
2019-05-18T14:55:06.743Z,21.20
2019-05-18T14:57:35.319Z,20.80
2019-05-18T15:00:06.211Z,20.80
2019-05-18T15:02:34.860Z,20.80
2019-05-18T15:53:46.236Z,21.60
2019-05-18T15:56:14.805Z,23.10
2019-05-18T15:58:43.360Z,23.50
2019-05-18T16:01:12.927Z,23.00
2019-05-18T16:03:41.484Z,22.50
2019-05-18T16:06:10.070Z,22.30
2019-05-18T16:08:38.729Z,22.10
2019-05-18T16:11:07.362Z,22.30
2019-05-18T16:13:35.926Z,22.10
2019-05-18T16:16:05.897Z,21.70
2019-05-18T16:18:34.447Z,21.50
2019-05-18T16:21:03.103Z,21.20
2019-05-18T16:23:36.242Z,20.90
2019-05-18T16:28:58.822Z,20.60
2019-05-18T16:31:27.379Z,21.10
2019-05-18T16:33:56.019Z,21.50
2019-05-18T16:36:24.719Z,22.50
2019-05-18T16:38:53.261Z,22.40
2019-05-18T16:41:21.821Z,22.60
2019-05-18T16:43:50.379Z,22.90
2019-05-18T16:46:18.927Z,24.10
2019-05-18T16:48:47.505Z,25.20
2019-05-18T16:51:16.399Z,25.40
2019-05-18T16:53:49.437Z,26.60
2019-05-18T16:56:15.318Z,25.60
2019-05-18T16:58:44.220Z,24.60
2019-05-18T17:01:12.875Z,23.80
2019-05-18T17:03:41.534Z,23.80
2019-05-18T17:06:10.295Z,24.20
2019-05-18T17:08:38.872Z,23.40
2019-05-18T17:11:09.303Z,23.00
2019-05-18T17:13:37.913Z,23.30
2019-05-18T17:16:06.643Z,23.70
2019-05-18T17:18:35.253Z,23.40
2019-05-18T17:21:04.599Z,23.50
2019-05-18T17:23:33.293Z,22.90
2019-05-18T17:26:01.852Z,21.60
2019-05-18T17:28:30.528Z,20.40
2019-05-18T17:30:59.158Z,19.70
2019-05-18T17:33:27.747Z,19.70
2019-05-18T17:36:00.311Z,19.90
2019-05-18T17:38:26.648Z,19.30
2019-05-18T17:40:55.243Z,19.20
2019-05-18T17:43:23.860Z,19.20
2019-05-18T17:45:52.447Z,19.10
2019-05-18T17:48:21.061Z,19.00
2019-05-18T17:50:49.789Z,19.00
2019-05-18T17:53:20.147Z,18.80
2019-05-18T17:55:48.808Z,18.50
2019-05-18T17:58:17.584Z,18.50
2019-05-18T18:00:46.654Z,18.50
2019-05-18T18:03:15.301Z,18.20
2019-05-18T18:05:44.003Z,18.00
2019-05-18T18:08:21.492Z,17.80
2019-05-18T18:10:50.603Z,17.90
2019-05-18T18:13:19.166Z,17.80
2019-05-18T18:15:47.787Z,17.60
2019-05-18T18:18:17.986Z,17.60
2019-05-18T18:20:46.930Z,17.60
2019-05-18T18:23:15.554Z,17.50
2019-05-18T18:26:03.667Z,17.50
2019-05-18T18:28:32.577Z,17.50
2019-05-18T18:31:01.524Z,17.50
2019-05-18T18:33:30.457Z,17.40
2019-05-18T18:35:59.077Z,17.40
2019-05-18T18:38:27.641Z,17.40
2019-05-18T18:40:56.363Z,17.30
2019-05-18T18:43:25.006Z,17.10
2019-05-18T18:45:53.598Z,17.20
2019-05-18T18:48:22.283Z,17.10
2019-05-18T18:50:50.904Z,17.10
2019-05-18T18:53:19.741Z,17.10
2019-05-18T18:55:48.408Z,17.10
2019-05-18T18:58:16.987Z,17.10
2019-05-18T19:00:45.563Z,17.00
2019-05-18T19:03:14.477Z,16.90
2019-05-18T19:05:43.023Z,16.80
2019-05-18T19:08:11.826Z,16.80
2019-05-18T19:10:40.511Z,16.70
2019-05-18T19:13:09.524Z,16.60
2019-05-18T19:15:38.091Z,16.60
2019-05-18T19:18:07.035Z,16.60
2019-05-18T19:20:35.758Z,16.50
2019-05-18T19:23:04.671Z,16.60
2019-05-18T19:25:33.374Z,16.60
2019-05-18T19:28:02.244Z,16.50
2019-05-18T19:30:33.026Z,16.50
2019-05-18T19:33:20.550Z,16.50
2019-05-18T19:35:49.167Z,16.40
2019-05-18T19:38:17.730Z,16.30
2019-05-18T19:40:46.682Z,16.20
2019-05-18T19:43:15.262Z,16.10
2019-05-18T19:45:43.822Z,16.10
2019-05-18T19:48:12.378Z,16.00
2019-05-18T19:50:41.491Z,15.90
2019-05-18T19:53:10.079Z,15.90
2019-05-18T19:55:38.722Z,16.00
2019-05-18T19:58:09.227Z,16.00
2019-05-18T20:00:37.559Z,16.00
2019-05-18T20:03:06.327Z,15.90
2019-05-18T20:05:35.007Z,15.90
2019-05-18T20:08:03.585Z,15.90
2019-05-18T20:10:32.305Z,15.80
2019-05-18T20:13:01.008Z,15.80
2019-05-18T20:15:29.659Z,15.80
2019-05-18T20:17:58.260Z,15.80
2019-05-18T20:20:26.924Z,15.80
2019-05-18T20:22:55.932Z,15.80
2019-05-18T20:25:24.609Z,15.80
2019-05-18T20:27:53.136Z,15.80
2019-05-18T20:30:24.009Z,15.80
2019-05-18T20:32:52.277Z,15.80
2019-05-18T20:35:20.810Z,15.90
2019-05-18T20:37:49.382Z,15.90
2019-05-18T20:40:18.090Z,16.00
2019-05-18T20:42:46.845Z,15.90
2019-05-18T20:45:15.469Z,16.00
2019-05-18T20:47:44.021Z,15.90
2019-05-18T20:50:13.255Z,15.80
2019-05-18T20:52:41.888Z,15.80
2019-05-18T20:55:10.622Z,15.80
2019-05-18T20:57:39.204Z,15.80
2019-05-18T21:00:09.329Z,15.90
2019-05-18T21:02:38.160Z,15.90
2019-05-18T21:05:27.710Z,15.90
2019-05-18T21:07:56.469Z,15.80
2019-05-18T21:10:25.069Z,15.80
2019-05-18T21:12:53.640Z,15.80
2019-05-18T21:15:22.301Z,15.80
2019-05-18T21:17:50.947Z,15.80
2019-05-18T21:20:19.846Z,15.80
2019-05-18T21:22:48.405Z,15.70
2019-05-18T21:25:17.042Z,15.70
2019-05-18T21:27:45.631Z,15.70
2019-05-18T21:30:15.031Z,15.60
2019-05-18T21:32:43.619Z,15.60
2019-05-18T21:35:12.352Z,15.60
2019-05-18T21:37:40.911Z,15.50
2019-05-18T21:40:11.031Z,15.50
2019-05-18T21:42:39.646Z,15.60
2019-05-18T21:45:09.003Z,15.50
2019-05-18T21:47:37.540Z,15.40
2019-05-18T21:50:07.954Z,15.40
2019-05-18T21:52:36.647Z,15.50
2019-05-18T21:55:09.271Z,15.50
2019-05-18T21:57:37.833Z,15.40
2019-05-18T22:00:09.154Z,15.40
2019-05-18T22:02:37.784Z,15.50
2019-05-18T22:05:07.118Z,15.50
2019-05-18T22:07:35.831Z,15.50
2019-05-18T22:10:24.432Z,15.50
2019-05-18T22:12:39.558Z,15.50
2019-05-18T22:15:09.301Z,15.60
2019-05-18T22:17:56.139Z,15.60
2019-05-18T22:20:25.157Z,15.60
2019-05-18T22:22:53.767Z,15.50
2019-05-18T22:25:22.401Z,15.50
2019-05-18T22:27:51.012Z,15.50
2019-05-18T22:30:19.629Z,15.40
2019-05-18T22:33:07.506Z,15.40
2019-05-18T22:35:36.122Z,15.40
2019-05-18T22:38:04.855Z,15.30
2019-05-18T22:40:33.491Z,15.20
2019-05-18T22:43:02.230Z,15.20
2019-05-18T22:45:31.663Z,15.20
2019-05-18T22:48:00.379Z,15.20
2019-05-18T22:50:29.023Z,15.10
2019-05-18T22:52:57.930Z,15.20
2019-05-18T22:55:26.510Z,15.10
2019-05-18T22:57:55.075Z,15.10
2019-05-18T23:00:23.841Z,15.10
2019-05-18T23:02:52.395Z,15.00
2019-05-18T23:05:20.949Z,15.00
2019-05-18T23:07:49.594Z,14.90
2019-05-18T23:10:18.219Z,14.90
2019-05-18T23:12:46.795Z,14.90
2019-05-18T23:15:15.434Z,14.80
2019-05-18T23:17:44.015Z,14.80
2019-05-18T23:20:13.209Z,14.70
2019-05-18T23:22:42.499Z,14.60
2019-05-18T23:25:11.475Z,14.70
2019-05-18T23:27:40.037Z,14.60
2019-05-18T23:30:09.370Z,14.60
2019-05-18T23:32:37.991Z,14.60
2019-05-18T23:35:06.858Z,14.50
2019-05-18T23:37:35.431Z,14.50
2019-05-18T23:40:05.637Z,14.50
2019-05-18T23:42:34.195Z,14.50
2019-05-18T23:45:03.148Z,14.60
2019-05-18T23:47:31.710Z,14.50
2019-05-18T23:50:00.339Z,14.50
2019-05-18T23:52:28.917Z,14.50
2019-05-18T23:54:57.477Z,14.40
2019-05-18T23:57:26.069Z,14.40
2019-05-18T23:59:54.661Z,14.30
